Time;durP1;ratioP1;P1;durP2;ratioP2;P2;SDS_P1;SDS_P2;PMS_P1;PMS_P2;Temp;Humidity;BMP_temperature;BMP_pressure;BME280_temperature;BME280_humidity;BME280_pressure;Samples;Min_cycle;Max_cycle;Signal;HPM_P1;HPM_P2
2022/08/22 00:01:52;;;;;;;12.73;11.57;;;14.70;99.90;;;;;;4998659;28;20268;-57
2022/08/22 00:04:48;;;;;;;13.05;11.93;;;14.60;99.90;;;;;;5001928;28;19967;-57
2022/08/22 00:07:16;;;;;;;16.77;11.50;;;14.60;99.90;;;;;;5000570;28;20065;-58
2022/08/22 00:09:54;;;;;;;11.80;11.00;;;14.60;99.90;;;;;;4994731;28;20027;-57
2022/08/22 00:12:22;;;;;;;12.55;11.55;;;14.50;99.90;;;;;;4999438;28;20041;-58
2022/08/22 00:14:52;;;;;;;11.82;10.85;;;14.50;99.90;;;;;;5002245;28;20114;-58
2022/08/22 00:17:42;;;;;;;12.50;11.60;;;14.50;99.90;;;;;;5001339;28;20381;-57
2022/08/22 00:20:18;;;;;;;12.60;11.60;;;14.50;99.90;;;;;;4996935;28;20160;-59
2022/08/22 00:23:10;;;;;;;15.10;13.90;;;14.50;99.90;;;;;;4994519;28;20784;-58
2022/08/22 00:25:54;;;;;;;14.85;13.57;;;14.50;99.90;;;;;;5002874;28;20037;-58
2022/08/22 00:28:32;;;;;;;15.43;14.10;;;14.50;99.90;;;;;;5000030;28;20057;-61
2022/08/22 00:31:14;;;;;;;14.88;13.43;;;14.50;99.90;;;;;;4996706;28;20061;-59
2022/08/22 00:33:49;;;;;;;15.18;13.98;;;14.50;99.90;;;;;;4999030;28;20026;-60
2022/08/22 00:36:36;;;;;;;14.80;13.68;;;14.50;99.90;;;;;;4999601;28;20030;-61
2022/08/22 00:39:04;;;;;;;14.57;13.57;;;14.40;99.90;;;;;;5000598;28;20481;-59
2022/08/22 00:41:57;;;;;;;14.52;13.38;;;14.40;99.90;;;;;;5000462;28;20035;-59
2022/08/22 00:45:04;;;;;;;13.25;11.98;;;14.40;99.90;;;;;;5001179;28;20030;-62
2022/08/22 00:47:42;;;;;;;11.63;10.73;;;14.40;99.90;;;;;;4999384;28;20088;-59
2022/08/22 00:50:08;;;;;;;12.73;11.50;;;14.30;99.90;;;;;;4999036;28;20026;-59
2022/08/22 00:52:52;;;;;;;12.98;11.75;;;14.30;99.90;;;;;;5000405;28;20049;-59
2022/08/22 00:56:01;;;;;;;14.70;13.30;;;14.20;99.90;;;;;;4998027;28;20058;-60
2022/08/22 00:58:33;;;;;;;13.77;12.57;;;14.10;99.90;;;;;;5001633;28;20512;-59
2022/08/22 01:01:11;;;;;;;14.77;13.57;;;14.00;99.90;;;;;;4995085;28;20038;-59
2022/08/22 01:03:43;;;;;;;13.73;12.75;;;13.90;99.90;;;;;;5002415;28;20038;-59
2022/08/22 01:06:19;;;;;;;14.70;13.50;;;13.90;99.90;;;;;;5000944;28;20033;-59
2022/08/22 01:08:57;;;;;;;15.48;14.38;;;13.90;99.90;;;;;;4982789;28;20053;-59
2022/08/22 01:11:46;;;;;;;13.95;12.85;;;13.80;99.90;;;;;;4999736;28;20030;-59
2022/08/22 01:14:31;;;;;;;13.57;12.55;;;13.80;99.90;;;;;;4999579;28;20029;-59
2022/08/22 01:17:17;;;;;;;16.40;14.85;;;13.80;99.90;;;;;;5002471;28;20083;-60
2022/08/22 01:20:11;;;;;;;17.05;15.05;;;13.80;99.90;;;;;;5002908;28;20042;-59
2022/08/22 01:22:56;;;;;;;16.65;15.20;;;13.80;99.90;;;;;;5007375;28;20022;-61
2022/08/22 01:26:16;;;;;;;14.23;13.23;;;13.80;99.90;;;;;;4996654;28;20030;-59
2022/08/22 01:28:53;;;;;;;17.00;15.30;;;13.70;99.90;;;;;;4947766;28;20035;-59
2022/08/22 01:31:52;;;;;;;18.90;17.27;;;13.70;99.90;;;;;;4992232;28;20026;-63
2022/08/22 01:34:45;;;;;;;16.45;15.05;;;13.60;99.90;;;;;;4998847;28;20026;-60
2022/08/22 01:37:25;;;;;;;14.90;13.57;;;13.60;99.90;;;;;;4996296;28;20026;-62
2022/08/22 01:40:20;;;;;;;14.98;13.65;;;13.60;99.90;;;;;;5000032;28;20061;-62
2022/08/22 01:42:58;;;;;;;14.65;13.60;;;13.50;99.90;;;;;;4999661;28;20053;-59
2022/08/22 01:45:26;;;;;;;15.98;14.40;;;13.50;99.90;;;;;;4997179;28;20041;-59
2022/08/22 01:48:19;;;;;;;15.60;14.45;;;13.50;99.90;;;;;;5003938;28;20030;-59
2022/08/22 01:51:16;;;;;;;17.60;15.98;;;13.40;99.90;;;;;;4998036;28;20041;-59
2022/08/22 01:54:02;;;;;;;14.85;13.82;;;13.40;99.90;;;;;;4999075;28;20393;-59
2022/08/22 01:56:34;;;;;;;15.95;14.57;;;13.40;99.90;;;;;;4997921;28;20041;-61
2022/08/22 01:59:05;;;;;;;15.02;13.63;;;13.40;99.90;;;;;;5000166;28;20120;-64
2022/08/22 02:02:02;;;;;;;16.08;14.95;;;13.30;99.90;;;;;;4998252;28;20022;-61
2022/08/22 02:04:33;;;;;;;16.58;15.38;;;13.30;99.90;;;;;;4999564;28;20031;-59
2022/08/22 02:07:14;;;;;;;15.15;14.05;;;13.30;99.90;;;;;;4997129;28;20030;-60
2022/08/22 02:09:58;;;;;;;19.20;17.80;;;13.30;99.90;;;;;;4996600;28;20026;-59
2022/08/22 02:12:46;;;;;;;16.45;15.18;;;13.30;99.90;;;;;;4994927;28;20026;-59
2022/08/22 02:15:15;;;;;;;18.00;16.58;;;13.30;99.90;;;;;;4997989;28;20108;-58
2022/08/22 02:17:59;;;;;;;20.02;18.13;;;13.30;99.90;;;;;;5003090;28;20025;-62
2022/08/22 02:20:30;;;;;;;17.25;16.05;;;13.30;99.90;;;;;;4978231;28;20494;-62
2022/08/22 02:22:59;;;;;;;;;;;13.20;99.90;;;;;;4976092;28;20402;-59
2022/08/22 02:25:31;;;;;;;16.40;15.18;;;13.20;99.90;;;;;;4971680;28;19910;-63
2022/08/22 02:28:02;;;;;;;16.80;15.38;;;13.10;99.90;;;;;;4980258;28;20050;-59
2022/08/22 02:30:43;;;;;;;26.65;16.48;;;13.10;99.90;;;;;;4977294;28;20030;-59
2022/08/22 02:33:16;;;;;;;153.45;17.00;;;13.10;99.90;;;;;;4981653;28;20101;-59
2022/08/22 02:35:53;;;;;;;73.38;8.25;;;13.00;99.90;;;;;;4996650;28;20459;-61
2022/08/22 02:38:27;;;;;;;12.00;11.10;;;13.00;99.90;;;;;;4997906;28;20061;-60
2022/08/22 02:41:23;;;;;;;12.00;11.10;;;12.90;99.90;;;;;;4995213;28;20490;-59
2022/08/22 02:44:00;;;;;;;12.20;11.30;;;12.80;99.90;;;;;;4998601;28;20042;-59
2022/08/22 02:46:38;;;;;;;12.20;11.30;;;12.80;99.90;;;;;;4999759;28;20030;-59
2022/08/22 02:49:47;;;;;;;16.60;15.20;;;12.80;99.90;;;;;;4996457;28;20030;-61
2022/08/22 02:52:25;;;;;;;17.50;16.05;;;12.70;99.90;;;;;;4986023;28;20026;-59
2022/08/22 02:55:08;;;;;;;14.68;13.57;;;12.70;99.90;;;;;;4999892;28;20030;-61
2022/08/22 02:57:58;;;;;;;13.63;12.43;;;12.70;99.90;;;;;;4999357;28;20018;-59
2022/08/22 03:00:42;;;;;;;13.27;12.18;;;12.60;99.90;;;;;;4999286;28;20056;-59
2022/08/22 03:03:15;;;;;;;12.35;11.25;;;12.60;99.90;;;;;;4995981;28;20029;-59
2022/08/22 03:05:43;;;;;;;12.23;11.35;;;12.50;99.90;;;;;;4978271;28;20085;-59
2022/08/22 03:08:25;;;;;;;12.35;11.23;;;12.50;99.90;;;;;;4997508;28;20031;-59
2022/08/22 03:10:58;;;;;;;14.07;12.98;;;12.50;99.90;;;;;;4998210;28;20042;-61
2022/08/22 03:13:48;;;;;;;14.98;13.50;;;12.40;99.90;;;;;;4996907;28;20069;-60
2022/08/22 03:16:30;;;;;;;13.40;12.30;;;12.40;99.90;;;;;;4993842;28;20050;-61
2022/08/22 03:19:13;;;;;;;10.93;10.25;;;12.40;99.90;;;;;;4997442;28;20135;-60
2022/08/22 03:21:53;;;;;;;11.18;10.38;;;12.30;99.90;;;;;;4999077;28;20026;-59
2022/08/22 03:24:39;;;;;;;10.57;9.90;;;12.30;99.90;;;;;;4999236;28;20119;-60
2022/08/22 03:27:18;;;;;;;189.50;14.77;;;12.20;99.90;;;;;;4995747;28;20026;-59
2022/08/22 03:30:01;;;;;;;253.07;15.05;;;12.20;99.90;;;;;;5000216;28;20027;-62
2022/08/22 03:32:57;;;;;;;144.80;14.48;;;12.20;99.90;;;;;;4973197;28;20398;-62
2022/08/22 03:35:25;;;;;;;167.30;14.82;;;12.10;99.90;;;;;;4995593;28;20450;-60
2022/08/22 03:38:02;;;;;;;246.13;19.33;;;12.10;99.90;;;;;;4998687;28;20478;-59
2022/08/22 03:40:33;;;;;;;260.70;17.23;;;12.00;99.90;;;;;;4998376;28;20104;-59
2022/08/22 03:43:04;;;;;;;11.50;10.80;;;12.00;99.90;;;;;;4995972;28;20134;-60
2022/08/22 03:45:42;;;;;;;22.05;13.68;;;12.00;99.90;;;;;;4995676;28;20054;-59
2022/08/22 03:48:13;;;;;;;13.75;12.77;;;12.00;99.90;;;;;;4996688;28;20026;-59
2022/08/22 03:51:03;;;;;;;16.88;15.30;;;12.00;99.90;;;;;;4996801;28;20050;-62
2022/08/22 03:53:35;;;;;;;43.50;16.65;;;11.90;99.90;;;;;;4978450;28;20103;-60
2022/08/22 03:56:19;;;;;;;72.05;19.27;;;11.90;99.90;;;;;;4996303;28;20738;-59
2022/08/22 03:59:15;;;;;;;41.53;16.20;;;11.90;99.90;;;;;;4997093;28;20045;-59
2022/08/22 04:01:50;;;;;;;131.57;17.25;;;11.90;99.90;;;;;;4998789;28;20076;-60
2022/08/22 04:04:31;;;;;;;191.93;17.20;;;11.90;99.90;;;;;;4997729;28;20925;-62
2022/08/22 04:07:35;;;;;;;115.22;14.85;;;11.90;99.90;;;;;;5002613;28;20037;-59
2022/08/22 04:10:17;;;;;;;207.07;13.63;;;11.80;99.90;;;;;;4998069;28;20482;-61
2022/08/22 04:13:01;;;;;;;14.77;13.77;;;11.70;99.90;;;;;;4996442;28;20145;-58
2022/08/22 04:15:36;;;;;;;14.20;13.00;;;11.70;99.90;;;;;;4994948;28;20430;-59
2022/08/22 04:18:13;;;;;;;15.60;14.35;;;11.70;99.90;;;;;;4996792;28;20026;-59
2022/08/22 04:20:58;;;;;;;16.08;14.88;;;11.60;99.90;;;;;;4970385;28;20045;-59
2022/08/22 04:23:56;;;;;;;20.40;18.80;;;11.70;99.90;;;;;;4976745;28;20034;-59
2022/08/22 04:26:34;;;;;;;20.73;18.98;;;11.70;99.90;;;;;;4994470;28;20579;-59
2022/08/22 04:29:13;;;;;;;17.20;15.93;;;11.70;99.90;;;;;;4995770;28;20030;-59
2022/08/22 04:31:46;;;;;;;14.48;13.52;;;11.80;99.90;;;;;;4999947;28;20026;-60
2022/08/22 04:34:23;;;;;;;11.00;10.23;;;11.80;99.90;;;;;;5002785;28;20029;-59
2022/08/22 04:36:59;;;;;;;16.17;14.95;;;11.80;99.90;;;;;;4997982;28;20034;-59
2022/08/22 04:39:37;;;;;;;18.30;17.10;;;11.80;99.90;;;;;;5001590;28;20123;-65
2022/08/22 04:42:21;;;;;;;15.43;14.23;;;11.80;99.90;;;;;;4999417;28;20406;-62
2022/08/22 04:45:06;;;;;;;16.95;15.55;;;11.90;99.90;;;;;;5000454;28;20045;-62
2022/08/22 04:47:49;;;;;;;14.70;13.63;;;11.90;99.90;;;;;;5002280;28;20030;-59
2022/08/22 04:50:30;;;;;;;9.98;9.35;;;11.90;99.90;;;;;;4999387;28;20537;-63
2022/08/22 04:53:25;;;;;;;6.38;5.97;;;11.90;99.90;;;;;;4999215;28;20144;-65
2022/08/22 04:56:01;;;;;;;174.85;9.27;;;12.00;99.90;;;;;;4997950;28;20452;-59
2022/08/22 04:58:54;;;;;;;205.57;10.20;;;11.90;99.90;;;;;;4999182;28;20037;-63
2022/08/22 05:01:35;;;;;;;126.93;9.70;;;11.90;99.90;;;;;;4999122;28;20110;-59
2022/08/22 05:04:07;;;;;;;99.57;9.23;;;12.00;99.90;;;;;;5000407;28;20100;-59
2022/08/22 05:06:35;;;;;;;;;;;12.00;99.90;;;;;;4998181;28;20106;-59
2022/08/22 05:09:06;;;;;;;257.45;10.95;;;12.30;99.90;;;;;;4998281;28;19912;-60
2022/08/22 05:11:33;;;;;;;152.75;8.10;;;12.60;99.90;;;;;;5001987;28;20121;-60
2022/08/22 05:14:14;;;;;;;162.23;6.00;;;13.10;99.90;;;;;;5000398;28;20030;-59
2022/08/22 05:16:42;;;;;;;171.02;7.10;;;13.70;99.90;;;;;;4998207;28;20504;-59
2022/08/22 05:19:16;;;;;;;34.15;3.63;;;14.20;99.90;;;;;;5002524;28;20057;-59
2022/08/22 05:21:44;;;;;;;2.47;2.20;;;14.70;99.90;;;;;;4999880;28;20030;-59
2022/08/22 05:24:25;;;;;;;4.55;4.15;;;15.70;99.90;;;;;;4999329;28;20111;-60
2022/08/22 05:26:54;;;;;;;3.28;3.05;;;16.70;99.90;;;;;;5000576;28;20022;-59
2022/08/22 05:29:26;;;;;;;2.90;2.70;;;17.70;99.90;;;;;;4999284;28;20042;-60
2022/08/22 05:32:03;;;;;;;3.85;3.20;;;19.00;99.90;;;;;;4994357;28;20033;-63
2022/08/22 05:34:37;;;;;;;2.67;2.47;;;20.20;99.90;;;;;;4996082;28;20548;-60
2022/08/22 05:37:57;;;;;;;3.80;3.38;;;21.20;99.90;;;;;;5005578;28;20538;-60
2022/08/22 05:40:27;;;;;;;2.95;2.50;;;21.90;99.90;;;;;;4979149;28;20323;-60
2022/08/22 05:42:55;;;;;;;2.65;2.45;;;22.50;99.90;;;;;;5001050;28;20037;-60
2022/08/22 05:45:22;;;;;;;3.13;2.83;;;22.60;99.90;;;;;;4994661;28;20754;-60
2022/08/22 05:47:54;;;;;;;3.63;3.28;;;22.80;99.90;;;;;;5000426;28;20030;-63
2022/08/22 05:50:33;;;;;;;3.03;2.58;;;22.90;99.90;;;;;;5000402;28;20041;-60
2022/08/22 05:53:17;;;;;;;3.38;3.08;;;23.00;99.90;;;;;;4999771;28;20100;-60
2022/08/22 05:55:59;;;;;;;5.57;2.95;;;22.90;99.90;;;;;;5002478;28;20181;-63
2022/08/22 05:58:38;;;;;;;3.60;3.40;;;22.40;99.90;;;;;;4996179;28;20298;-59
2022/08/22 06:01:10;;;;;;;3.45;2.92;;;21.60;99.90;;;;;;4999769;28;20072;-60
2022/08/22 06:03:49;;;;;;;3.58;3.38;;;20.80;99.90;;;;;;4996615;28;20038;-60
2022/08/22 06:06:18;;;;;;;4.85;4.47;;;20.30;99.90;;;;;;4999644;28;20042;-62
2022/08/22 06:09:00;;;;;;;5.95;5.55;;;19.80;99.90;;;;;;4995383;28;20572;-60
2022/08/22 06:11:42;;;;;;;5.70;5.00;;;19.50;99.90;;;;;;4997638;28;20045;-60
2022/08/22 06:14:16;;;;;;;6.97;5.43;;;19.90;99.90;;;;;;4996356;28;20023;-60
2022/08/22 06:17:17;;;;;;;5.95;5.38;;;21.00;99.90;;;;;;4997769;28;20368;-60
2022/08/22 06:19:48;;;;;;;5.18;4.68;;;22.40;99.90;;;;;;4977773;28;20121;-60
2022/08/22 06:22:32;;;;;;;4.95;4.60;;;24.20;99.90;;;;;;4993961;28;20557;-62
2022/08/22 06:25:15;;;;;;;4.68;4.28;;;25.60;90.30;;;;;;4996451;28;20038;-60
2022/08/22 06:27:43;;;;;;;4.25;3.88;;;26.70;74.10;;;;;;4997822;28;20023;-60
2022/08/22 06:30:13;;;;;;;4.00;3.70;;;27.50;71.70;;;;;;4999723;28;20072;-63
2022/08/22 06:32:44;;;;;;;3.27;3.07;;;27.90;66.90;;;;;;5002591;28;20094;-61
2022/08/22 06:35:28;;;;;;;5.80;4.30;;;28.20;66.40;;;;;;4991564;28;20026;-60
2022/08/22 06:37:58;;;;;;;3.72;3.42;;;28.60;62.40;;;;;;4998522;28;20027;-62
2022/08/22 06:40:27;;;;;;;3.97;3.60;;;29.10;61.60;;;;;;4997047;28;20027;-60
2022/08/22 06:42:55;;;;;;;4.75;4.05;;;29.10;59.80;;;;;;4999203;28;20061;-60
2022/08/22 06:45:27;;;;;;;3.70;3.40;;;28.90;59.40;;;;;;4999214;28;20029;-60
2022/08/22 06:48:05;;;;;;;4.10;3.80;;;28.80;61.30;;;;;;4998990;28;20022;-65
2022/08/22 06:50:36;;;;;;;3.60;3.30;;;29.20;60.00;;;;;;4995469;28;20041;-60
2022/08/22 06:53:12;;;;;;;4.18;3.88;;;29.60;58.10;;;;;;4997639;28;20117;-60
2022/08/22 06:55:41;;;;;;;4.10;3.70;;;29.50;58.40;;;;;;4993546;28;20037;-60
2022/08/22 06:58:17;;;;;;;4.20;3.80;;;29.70;59.10;;;;;;4999544;28;20422;-65
2022/08/22 07:00:45;;;;;;;5.70;3.67;;;30.30;57.60;;;;;;4992135;28;20726;-61
2022/08/22 07:03:37;;;;;;;4.88;3.53;;;31.00;56.60;;;;;;5001792;28;20129;-65
2022/08/22 07:06:03;;;;;;;3.35;3.10;;;31.40;54.40;;;;;;4996252;28;20038;-60
2022/08/22 07:08:31;;;;;;;3.85;3.45;;;32.00;53.10;;;;;;4997104;28;20037;-60
2022/08/22 07:11:04;;;;;;;5.00;3.58;;;32.20;52.80;;;;;;5013699;28;20026;-60
2022/08/22 07:13:31;;;;;;;5.47;3.65;;;32.30;52.80;;;;;;4996080;28;20041;-63
2022/08/22 07:16:01;;;;;;;4.15;3.10;;;32.50;51.20;;;;;;4998672;28;20493;-60
2022/08/22 07:18:28;;;;;;;4.20;3.90;;;32.90;51.10;;;;;;4999208;28;20034;-61
2022/08/22 07:21:03;;;;;;;4.70;2.95;;;33.00;50.70;;;;;;4998476;28;20018;-64
2022/08/22 07:23:34;;;;;;;3.13;2.83;;;33.70;50.40;;;;;;4991819;28;20034;-61
2022/08/22 07:26:21;;;;;;;3.00;2.80;;;34.70;48.00;;;;;;4997202;28;20035;-60
2022/08/22 07:28:56;;;;;;;2.67;2.47;;;34.90;46.30;;;;;;4995785;28;20034;-62
2022/08/22 07:31:34;;;;;;;3.45;3.13;;;34.40;47.00;;;;;;4994274;28;20053;-63
2022/08/22 07:34:25;;;;;;;4.30;2.80;;;34.30;46.60;;;;;;4996752;28;20454;-61
2022/08/22 07:37:22;;;;;;;4.68;2.85;;;34.70;46.20;;;;;;4974215;28;20035;-64
2022/08/22 07:40:05;;;;;;;3.42;3.13;;;35.30;45.40;;;;;;4997762;28;20027;-61
2022/08/22 07:42:57;;;;;;;5.53;2.78;;;35.80;45.40;;;;;;4995094;28;20034;-61
2022/08/22 07:45:32;;;;;;;3.88;2.45;;;36.20;44.90;;;;;;4994151;28;20117;-60
2022/08/22 07:48:26;;;;;;;2.63;2.42;;;36.90;43.50;;;;;;4999850;28;20440;-62
2022/08/22 07:50:52;;;;;;;17.48;3.35;;;37.10;43.00;;;;;;4995328;28;20120;-60
2022/08/22 07:53:32;;;;;;;4.80;2.97;;;36.70;42.70;;;;;;4996278;28;20135;-63
2022/08/22 07:56:00;;;;;;;2.88;2.40;;;36.20;43.20;;;;;;4997247;28;20569;-64
2022/08/22 07:58:30;;;;;;;4.75;3.08;;;36.70;44.00;;;;;;4997736;28;20035;-63
2022/08/22 08:00:56;;;;;;;2.78;2.55;;;37.10;42.80;;;;;;4997923;28;20057;-64
2022/08/22 08:03:26;;;;;;;3.08;2.40;;;36.90;43.00;;;;;;5000138;28;20030;-61
2022/08/22 08:05:52;;;;;;;2.60;2.17;;;36.70;42.70;;;;;;5001785;28;20029;-64
2022/08/22 08:08:26;;;;;;;3.05;2.28;;;36.70;42.40;;;;;;5001603;28;20121;-62
2022/08/22 08:10:55;;;;;;;3.60;2.08;;;36.50;42.90;;;;;;4999299;28;20513;-63
2022/08/22 08:13:27;;;;;;;3.13;2.83;;;36.30;43.90;;;;;;5004483;28;20497;-61
2022/08/22 08:15:53;;;;;;;8.07;1.95;;;36.10;43.00;;;;;;5001893;28;20026;-61
2022/08/22 08:18:24;;;;;;;5.18;2.10;;;36.00;43.70;;;;;;5001168;28;20394;-62
2022/08/22 08:20:55;;;;;;;3.75;2.08;;;36.40;42.40;;;;;;5003011;28;20367;-61
2022/08/22 08:23:22;;;;;;;3.08;2.13;;;36.80;41.50;;;;;;5005455;28;20026;-61
2022/08/22 08:25:58;;;;;;;4.43;1.63;;;37.10;40.10;;;;;;4995805;28;20031;-61
2022/08/22 08:28:33;;;;;;;2.97;1.45;;;37.50;40.30;;;;;;4999397;28;20038;-61
2022/08/22 08:31:23;;;;;;;2.55;1.48;;;37.90;37.90;;;;;;5000614;28;20033;-59
2022/08/22 08:33:56;;;;;;;2.60;1.52;;;38.30;37.00;;;;;;4993676;28;20702;-60
2022/08/22 08:36:49;;;;;;;3.05;1.60;;;38.00;36.60;;;;;;5002377;28;20030;-61
2022/08/22 08:39:27;;;;;;;5.07;1.40;;;38.60;36.10;;;;;;4995133;28;20030;-61
2022/08/22 08:42:01;;;;;;;5.05;2.00;;;38.70;36.30;;;;;;4995162;28;20053;-61
2022/08/22 08:44:45;;;;;;;2.42;1.30;;;38.30;36.00;;;;;;5002582;28;20053;-61
2022/08/22 08:47:35;;;;;;;2.22;1.40;;;37.90;36.40;;;;;;5002315;28;20374;-60
2022/08/22 08:50:13;;;;;;;2.25;1.45;;;38.20;36.60;;;;;;4999234;28;20026;-60
2022/08/22 08:52:42;;;;;;;5.97;1.60;;;37.70;36.70;;;;;;4997873;28;20038;-61
2022/08/22 08:55:42;;;;;;;4.43;1.30;;;36.70;37.20;;;;;;4997389;28;20038;-64
2022/08/22 08:58:27;;;;;;;3.70;1.60;;;36.20;38.30;;;;;;5000266;28;20065;-61
2022/08/22 09:01:09;;;;;;;7.47;1.73;;;35.80;39.00;;;;;;5002574;28;20040;-61
2022/08/22 09:03:55;;;;;;;6.45;1.60;;;35.30;39.60;;;;;;4998673;28;20041;-61
2022/08/22 09:06:47;;;;;;;3.20;1.25;;;34.20;39.80;;;;;;5003439;28;20429;-64
2022/08/22 09:09:34;;;;;;;4.07;1.27;;;33.80;41.00;;;;;;5000625;28;20030;-62
2022/08/22 09:12:15;;;;;;;3.58;1.27;;;34.00;40.80;;;;;;4999939;28;20034;-61
2022/08/22 09:14:55;;;;;;;7.50;1.23;;;32.60;40.70;;;;;;4998311;28;20101;-60
2022/08/22 09:17:24;;;;;;;;;;;32.70;43.30;;;;;;5004701;28;20096;-62
2022/08/22 09:20:08;;;;;;;3.50;1.30;;;32.20;42.90;;;;;;5004900;28;20012;-60
2022/08/22 09:22:57;;;;;;;4.45;1.40;;;32.10;43.60;;;;;;4999952;28;20056;-60
2022/08/22 09:25:59;;;;;;;3.55;2.13;;;32.60;44.20;;;;;;5000727;28;20049;-64
2022/08/22 09:28:34;;;;;;;3.03;1.50;;;32.70;41.10;;;;;;4997816;28;20022;-60
2022/08/22 09:31:20;;;;;;;5.22;1.42;;;32.10;40.70;;;;;;4999686;28;20026;-64
2022/08/22 09:33:54;;;;;;;2.72;1.40;;;30.40;43.10;;;;;;5000461;28;20042;-60
2022/08/22 09:36:32;;;;;;;2.40;1.15;;;30.00;45.60;;;;;;4998492;28;20033;-64
2022/08/22 09:39:15;;;;;;;3.15;1.42;;;28.80;47.00;;;;;;4999914;28;20069;-63
2022/08/22 09:42:09;;;;;;;3.45;1.27;;;28.40;49.10;;;;;;5000380;28;20377;-60
2022/08/22 09:44:37;;;;;;;3.95;1.10;;;29.00;47.60;;;;;;4996869;28;20030;-60
2022/08/22 09:47:25;;;;;;;5.80;1.73;;;29.10;47.20;;;;;;5001860;28;20029;-60
2022/08/22 09:50:41;;;;;;;5.22;2.17;;;29.50;46.60;;;;;;4998494;28;20029;-63
2022/08/22 09:53:49;;;;;;;3.47;1.33;;;30.20;46.00;;;;;;4919753;29;20043;-60
2022/08/22 09:56:20;;;;;;;3.05;1.67;;;29.80;44.20;;;;;;4957959;28;20038;-64
2022/08/22 09:58:49;;;;;;;3.40;1.35;;;29.10;47.00;;;;;;5002532;28;20057;-60
2022/08/22 10:01:17;;;;;;;4.88;1.38;;;29.60;46.30;;;;;;4997537;28;20469;-60
2022/08/22 10:03:54;;;;;;;6.45;1.42;;;30.00;45.10;;;;;;4994918;28;20038;-61
2022/08/22 10:06:26;;;;;;;7.40;1.25;;;30.40;44.90;;;;;;5002513;28;20432;-60
2022/08/22 10:09:20;;;;;;;4.05;1.23;;;30.60;43.80;;;;;;5003785;28;20029;-60
2022/08/22 10:11:53;;;;;;;4.60;1.33;;;30.70;44.00;;;;;;4996633;28;20605;-60
2022/08/22 10:14:25;;;;;;;3.05;1.42;;;30.00;44.10;;;;;;4999364;28;20038;-63
2022/08/22 10:16:57;;;;;;;5.82;1.40;;;29.80;44.80;;;;;;4994451;28;20027;-60
2022/08/22 10:19:51;;;;;;;5.68;1.10;;;30.30;45.90;;;;;;4996281;28;20030;-60
2022/08/22 10:22:29;;;;;;;4.05;1.30;;;30.70;45.60;;;;;;4996728;28;20026;-60
2022/08/22 10:25:17;;;;;;;3.75;1.30;;;31.20;44.90;;;;;;4996945;28;20045;-60
2022/08/22 10:28:18;;;;;;;4.20;1.00;;;31.70;43.50;;;;;;4997582;28;20026;-62
2022/08/22 10:30:47;;;;;;;2.10;0.98;;;31.80;44.20;;;;;;4991632;28;20030;-60
2022/08/22 10:33:33;;;;;;;2.65;0.95;;;32.70;42.50;;;;;;5000429;28;20025;-62
2022/08/22 10:36:02;;;;;;;4.15;1.00;;;33.10;41.00;;;;;;4999777;28;20087;-63
2022/08/22 10:38:41;;;;;;;2.95;1.00;;;33.30;41.00;;;;;;4999782;28;20030;-60
2022/08/22 10:41:18;;;;;;;2.10;1.00;;;33.20;41.60;;;;;;4995693;28;20518;-63
2022/08/22 10:44:10;;;;;;;2.38;1.20;;;32.40;39.50;;;;;;4994683;28;20073;-60
2022/08/22 10:46:44;;;;;;;3.67;1.20;;;31.80;41.90;;;;;;4990110;28;20053;-61
2022/08/22 10:49:19;;;;;;;5.03;1.15;;;31.80;42.10;;;;;;4997795;28;20045;-60
2022/08/22 10:52:18;;;;;;;2.10;0.80;;;32.00;41.80;;;;;;4998611;28;20057;-60
2022/08/22 10:54:56;;;;;;;2.75;1.30;;;33.00;40.90;;;;;;4996000;28;20109;-60
2022/08/22 10:58:06;;;;;;;3.85;1.02;;;34.20;39.90;;;;;;4995643;28;20030;-62
2022/08/22 11:00:43;;;;;;;3.38;1.00;;;34.80;39.70;;;;;;4993974;28;20089;-63
2022/08/22 11:03:35;;;;;;;1.65;0.85;;;34.30;36.80;;;;;;4997447;28;20018;-60
2022/08/22 11:06:09;;;;;;;1.63;0.80;;;34.20;37.70;;;;;;4987973;28;20045;-60
2022/08/22 11:08:52;;;;;;;3.58;1.00;;;33.40;39.60;;;;;;4992719;28;20046;-60
2022/08/22 11:11:22;;;;;;;4.88;1.10;;;33.20;39.90;;;;;;5001082;28;20743;-59
2022/08/22 11:14:12;;;;;;;3.63;1.20;;;32.80;41.70;;;;;;4996059;28;20045;-59
2022/08/22 11:16:59;;;;;;;2.88;1.00;;;32.40;42.20;;;;;;4997534;28;20030;-60
2022/08/22 11:19:31;;;;;;;2.55;1.00;;;32.00;41.60;;;;;;4996252;28;20031;-60
2022/08/22 11:22:05;;;;;;;2.13;0.90;;;31.80;42.90;;;;;;4999173;28;20048;-60
2022/08/22 11:24:46;;;;;;;2.33;0.90;;;31.90;42.70;;;;;;4997767;28;20121;-60
2022/08/22 11:27:33;;;;;;;4.53;0.90;;;32.00;42.30;;;;;;4996251;28;20057;-60
2022/08/22 11:30:31;;;;;;;3.33;1.10;;;32.40;41.00;;;;;;5000609;28;20018;-60
2022/08/22 11:33:38;;;;;;;4.22;1.00;;;32.20;41.60;;;;;;4971015;28;20038;-60
2022/08/22 11:36:20;;;;;;;3.05;1.10;;;31.80;39.90;;;;;;4970701;28;20041;-62
2022/08/22 11:39:26;;;;;;;4.18;1.17;;;31.00;40.90;;;;;;5003437;28;20105;-60
2022/08/22 11:41:56;;;;;;;5.93;1.17;;;30.60;44.40;;;;;;5002369;28;20062;-60
2022/08/22 11:44:32;;;;;;;10.95;1.65;;;30.50;44.10;;;;;;4999413;28;20040;-62
2022/08/22 11:47:00;;;;;;;14.00;2.42;;;29.90;42.30;;;;;;5003499;28;20026;-60
2022/08/22 11:49:32;;;;;;;11.55;1.13;;;29.80;43.40;;;;;;5002085;28;20580;-60
2022/08/22 11:52:00;;;;;;;20.92;2.30;;;29.70;45.00;;;;;;5001278;28;20205;-62
2022/08/22 11:54:54;;;;;;;9.18;1.20;;;29.70;45.60;;;;;;5000121;28;20125;-60
2022/08/22 11:57:28;;;;;;;6.90;1.10;;;30.10;44.00;;;;;;5001748;28;20980;-61
2022/08/22 12:00:05;;;;;;;1.98;0.90;;;30.30;43.80;;;;;;4998688;28;20042;-64
2022/08/22 12:02:45;;;;;;;2.38;1.25;;;29.50;43.70;;;;;;4998967;28;20467;-60
2022/08/22 12:06:10;;;;;;;17.73;1.83;;;28.70;44.90;;;;;;4984533;28;20498;-62
2022/08/22 12:08:35;;;;;;;4.13;1.25;;;29.00;45.60;;;;;;4977705;28;20515;-59
2022/08/22 12:11:17;;;;;;;17.70;1.55;;;29.40;44.70;;;;;;5005636;28;20022;-64
2022/08/22 12:13:59;;;;;;;3.33;1.10;;;28.50;45.60;;;;;;4997819;28;20137;-61
2022/08/22 12:16:36;;;;;;;4.57;1.10;;;28.80;45.80;;;;;;5000592;28;20058;-62
2022/08/22 12:19:32;;;;;;;10.00;1.20;;;28.80;46.00;;;;;;5001614;28;20038;-59
2022/08/22 12:22:04;;;;;;;6.05;1.30;;;28.80;46.70;;;;;;5004040;28;20030;-61
2022/08/22 12:24:40;;;;;;;4.82;1.00;;;28.30;45.70;;;;;;4996094;28;20101;-60
2022/08/22 12:27:24;;;;;;;5.35;1.40;;;28.70;46.00;;;;;;4999354;28;20371;-60
2022/08/22 12:30:16;;;;;;;9.07;1.33;;;28.40;45.40;;;;;;5002257;28;20102;-63
2022/08/22 12:33:13;;;;;;;2.20;1.20;;;27.90;46.60;;;;;;4982552;28;20069;-60
2022/08/22 12:36:12;;;;;;;3.50;1.20;;;27.70;46.70;;;;;;4989286;28;20046;-59
2022/08/22 12:38:50;;;;;;;3.30;1.10;;;28.40;47.90;;;;;;4999507;28;20034;-62
2022/08/22 12:41:24;;;;;;;3.33;1.42;;;28.60;45.20;;;;;;4997615;28;20489;-59
2022/08/22 12:44:12;;;;;;;4.82;1.30;;;28.80;45.10;;;;;;5000565;28;20034;-61
2022/08/22 12:46:52;;;;;;;1.83;1.05;;;28.70;44.40;;;;;;4998725;28;20026;-59
2022/08/22 12:49:49;;;;;;;5.03;1.20;;;28.80;46.70;;;;;;4999698;28;20570;-59
2022/08/22 12:52:23;;;;;;;2.95;1.33;;;28.90;45.80;;;;;;5002060;28;20038;-61
2022/08/22 12:55:16;;;;;;;6.45;1.20;;;28.90;44.60;;;;;;5002375;28;20026;-60
2022/08/22 12:57:45;;;;;;;2.38;1.08;;;28.40;45.50;;;;;;4999792;28;20081;-59
2022/08/22 13:00:38;;;;;;;4.40;1.30;;;28.40;46.40;;;;;;5000373;28;20030;-60
2022/08/22 13:03:12;;;;;;;4.07;1.10;;;28.50;47.20;;;;;;5000985;28;20029;-62
2022/08/22 13:05:43;;;;;;;3.15;1.15;;;28.50;46.10;;;;;;5002604;28;20478;-59
2022/08/22 13:08:15;;;;;;;4.70;0.98;;;28.70;47.00;;;;;;4999490;28;20057;-62
2022/08/22 13:10:48;;;;;;;22.00;1.80;;;28.90;45.60;;;;;;4999379;28;20030;-59
2022/08/22 13:13:30;;;;;;;11.40;1.33;;;28.90;45.60;;;;;;4998807;28;20494;-60
2022/08/22 13:16:01;;;;;;;9.15;1.33;;;28.70;43.70;;;;;;5003256;28;20116;-61
2022/08/22 13:18:36;;;;;;;4.93;1.13;;;28.30;44.60;;;;;;5000185;28;20037;-59
2022/08/22 13:21:05;;;;;;;4.82;1.00;;;27.80;46.90;;;;;;5000471;28;20041;-61
2022/08/22 13:23:42;;;;;;;4.22;1.05;;;27.50;46.20;;;;;;4999026;28;20046;-59
2022/08/22 13:26:20;;;;;;;3.92;1.35;;;27.40;47.10;;;;;;5000730;28;20026;-61
2022/08/22 13:28:54;;;;;;;3.65;1.17;;;27.70;48.20;;;;;;5004679;28;20378;-60
2022/08/22 13:31:30;;;;;;;8.27;1.20;;;27.80;47.30;;;;;;4999126;28;20022;-63
2022/08/22 13:34:04;;;;;;;13.38;1.73;;;27.80;47.90;;;;;;5000131;28;20026;-59
2022/08/22 13:36:39;;;;;;;7.20;1.10;;;27.40;45.40;;;;;;4993804;28;20490;-61
2022/08/22 13:39:28;;;;;;;2.30;1.20;;;27.50;48.50;;;;;;4997042;28;20022;-60
2022/08/22 13:41:58;;;;;;;4.32;1.30;;;27.10;47.20;;;;;;4998568;28;20041;-59
2022/08/22 13:44:29;;;;;;;5.00;1.33;;;27.10;47.60;;;;;;5001560;28;20109;-61
2022/08/22 13:47:10;;;;;;;2.38;1.08;;;27.30;48.60;;;;;;4986934;28;20035;-62